Airfield :
LOGIN :

Register | Disclaimer

   EN    FR    IT 

 










Legend :    VFR   Marginal VFR   IFR   Intensive IFR   Very Intensive IFR
Visi :
Ceiling :
>= 8 km
>= 3000ft
5 to 8 km
1000 to 3000 ft
1500m to 5 km
500 to 1000 ft
800 to 1500m
200 to 500 ft
< 800m
< 200 ft
Symbols :   Thunderstorms  Fog  Heavy snow  Heavy precipitations  Wind > 20 kt
SIGMETs :     Misc.  Thunderstorms  Icing  Turbulence  Mountain Waves  Volcanic Ashes







- Airport Elevation : 913 ft
- Download approach charts


LFSX - Luxeuil

CURRENT METAR :
  • 180730Z AUTO 23016G27KT 6000 -RA OVC010 04/03 Q1011

EXPIRED METARs :
  • 180700Z AUTO 22019G30KT 180V250 5000 -RA BR OVC012 04/03 Q1011
  • 180630Z AUTO 22018KT 8000 -RA OVC012 04/02 Q1011
  • 180600Z AUTO 22016G30KT 180V260 8000 RA OVC013 03/02 Q1011
  • 180530Z AUTO 21015G25KT 180V240 9000 -RA OVC012 03/02 Q1011
  • 180500Z AUTO 21017KT 9000 RA BKN012 OVC018 03/02 Q1012

TAF TAF LFSX
Valid from the 17 at 15:00 until the 18 at 15:00 UTC


171400Z 1715/1815 26010G20KT 9999 BKN035
TEMPO 1715/1803 4000 SHRA
PROB40
TEMPO 1715/1722 23020G35KT 2000 TS SHSNRAGS BKN014CB
No reported NOTAMs for that airfield.
4 SIGMETs reported for the Reims FIR (LFEE) :
 
Severe mountain waves
LFEE SIGMET 4 VALID 180700/181100 LFPW
LFEE REIMS FIR/UIR SEV MTW FCST WI N4845 E00745 - N4745 E00730 - N4745 E00645 - N4845 E00715 - N4845 E00745 SFC/FL220 STNR INTSF=
SIGMET 2  cancelation
LFEE SIGMET 3 VALID 180720/181100 LFPW
LFEE REIMS FIR/UIR CNL SIGMET 2 180700/181100=
SIGMET 2  CANCELED :
Severe turbulence
LFEE SIGMET 2 VALID 180700/181100 LFPW
LFEE REIMS FIR/UIR SEV TURB FCST WI N4845 E00745 - N4745 E00730 - N4745 E00645 - N4845 E00715 - N4845 E00745 SFC/FL220 STNR INTSF=
Severe turbulence
LFEE SIGMET 1 VALID 180500/180900 LFPW
LFEE REIMS FIR/UIR SEV TURB FCST N OF N4700 SFC/FL060 STNR INTSF=



MET'MAP, your aeronautical weather chart ! - Copyright ORBIFLY December 2007 - Disclaimer

ORBIFLY MET'MAP TEAM :

Programming & Development : Alexandra Zaïnal
Concept & Development : Baudouin d'Aumeries
Co-Development & Prog : Marc-Olivier Méhu
Technical & hardware support : Manuel Goepfert

Contact : metmap@orbifly.com




SOURCES & CREDITS :

   NOAA